Kingsbury, Nevada
Current Conditions -  °F | °C
As of 4:53 AM on Saturday 20 Dec 2014 (Local Time) from KTVL Reporting Station
Light Snow Light Snow  
Wind Chill: 31°   Ceiling: 1700
Heat Index: 36°   Visibility: 4mi
Dew Point: 31°   Wind: 6mph
Humidity: 82%   Direction: 190°S
Pressure: 30.11"   Gusts: NA
Location:  39.0164°N, 119.925°W
Report Text: KTVL 201253Z AUTO 19005KT 4SM -SN OVC017 02/M01 A3011 RMK AO2 RAE32SNB32 SLP188 P0002 T00221006
Loading
Personal Weather Stations






























Interactive Weather Map New forecast layout! Learn more

10-Day Weather Forecast

Advertisements
Track Severe Weather on mobile